< < Back
Terminal Aerodrome Forecast


Current Version              Previous Versions:   1  2  3  4  5  6  7  8  9  

Terminal Aerodrome Forecast

502
FTUS42 KJAX 252300
TAFGNV
TAF
KGNV 252320Z 2600/2624 00000KT P6SM SKC
     FM261500 32005KT P6SM SKC=

Latest METAR

297
SAUS70 KWBC 260100 RRA
MTRGNV
METAR KGNV 260053Z 00000KT 10SM CLR 13/12 A3001 RMK AO2 SLP161
T01330117


USA.gov is the U.S. government's official web portal to all federal, state and local government web resources and services.